createdAt,value
2022-12-29T00:01:03.519Z,2.25
2022-12-29T00:03:31.806Z,2.08
2022-12-29T00:06:00.107Z,2.83
2022-12-29T00:08:40.980Z,2.22
2022-12-29T00:11:09.700Z,2.13
2022-12-29T00:13:55.184Z,1.92
2022-12-29T00:16:24.644Z,2.45
2022-12-29T00:18:52.808Z,2.45
2022-12-29T00:21:54.725Z,2.10
2022-12-29T00:24:41.292Z,2.93
2022-12-29T00:27:31.793Z,2.20
2022-12-29T00:30:18.254Z,2.63
2022-12-29T00:33:04.800Z,3.25
2022-12-29T00:35:36.343Z,2.83
2022-12-29T00:38:25.226Z,3.23
2022-12-29T00:41:10.385Z,2.28
2022-12-29T00:43:58.864Z,2.03
2022-12-29T00:46:27.171Z,2.25
2022-12-29T00:49:14.175Z,2.30
2022-12-29T00:51:42.270Z,2.20
2022-12-29T00:54:10.472Z,2.40
2022-12-29T00:56:38.677Z,2.38
2022-12-29T00:59:08.280Z,2.22
2022-12-29T01:01:36.970Z,2.20
2022-12-29T01:04:07.135Z,1.67
2022-12-29T01:06:46.585Z,2.00
2022-12-29T01:09:32.373Z,1.80
2022-12-29T01:12:00.580Z,1.90
2022-12-29T01:14:28.555Z,2.20
2022-12-29T01:16:57.851Z,2.63
2022-12-29T01:19:27.967Z,2.20
2022-12-29T01:21:55.899Z,2.17
2022-12-29T01:24:27.608Z,1.92
2022-12-29T01:26:55.849Z,3.58
2022-12-29T01:29:24.619Z,3.37
2022-12-29T01:31:53.413Z,2.30
2022-12-29T01:34:21.049Z,2.35
2022-12-29T01:36:50.257Z,2.20
2022-12-29T01:39:18.293Z,2.00
2022-12-29T01:41:46.242Z,1.87
2022-12-29T01:44:52.343Z,1.80
2022-12-29T01:47:28.357Z,1.80
2022-12-29T01:49:59.732Z,1.92
2022-12-29T01:52:31.983Z,2.22
2022-12-29T01:55:01.760Z,1.60
2022-12-29T01:57:33.301Z,2.10
2022-12-29T02:00:09.738Z,1.33
2022-12-29T02:02:38.002Z,1.42
2022-12-29T02:05:12.309Z,1.58
2022-12-29T02:07:41.854Z,1.30
2022-12-29T02:10:09.977Z,1.70
2022-12-29T02:12:38.343Z,1.80
2022-12-29T02:15:07.814Z,1.42
2022-12-29T02:17:54.092Z,2.00
2022-12-29T02:20:42.785Z,3.47
2022-12-29T02:23:51.647Z,4.45
2022-12-29T02:26:37.640Z,3.60
2022-12-29T02:29:27.042Z,1.80
2022-12-29T02:32:02.268Z,1.38
2022-12-29T02:34:44.118Z,1.10
2022-12-29T02:37:19.816Z,1.23
2022-12-29T02:39:55.547Z,1.25
2022-12-29T02:42:32.694Z,1.38
2022-12-29T02:45:06.916Z,1.20
2022-12-29T02:47:42.332Z,1.60
2022-12-29T02:50:17.381Z,1.55
2022-12-29T02:52:50.368Z,1.48
2022-12-29T02:55:17.504Z,1.13
2022-12-29T02:57:53.598Z,1.50
2022-12-29T03:00:21.890Z,1.57
2022-12-29T03:03:18.415Z,1.20
2022-12-29T03:06:17.971Z,1.02
2022-12-29T03:08:51.832Z,0.88
2022-12-29T03:11:45.698Z,1.15
2022-12-29T03:14:37.516Z,1.17
2022-12-29T03:17:11.510Z,1.17
2022-12-29T03:19:45.040Z,1.33
2022-12-29T03:22:32.898Z,1.23
2022-12-29T03:25:05.985Z,1.38
2022-12-29T03:27:37.001Z,1.20
2022-12-29T03:30:07.275Z,1.15
2022-12-29T03:32:38.197Z,1.20
2022-12-29T03:35:10.780Z,1.00
2022-12-29T03:37:41.775Z,1.33
2022-12-29T03:40:10.924Z,0.93
2022-12-29T03:42:40.609Z,1.20
2022-12-29T03:45:09.943Z,1.65
2022-12-29T03:47:38.145Z,1.08
2022-12-29T03:50:09.903Z,1.20
2022-12-29T03:52:37.556Z,1.30
2022-12-29T03:55:06.007Z,0.93
2022-12-29T03:57:34.177Z,1.30
2022-12-29T04:00:01.939Z,1.20
2022-12-29T04:02:30.027Z,1.60
2022-12-29T04:04:58.336Z,1.30
2022-12-29T04:07:27.805Z,1.30
2022-12-29T04:09:55.887Z,1.55
2022-12-29T04:12:23.702Z,1.40
2022-12-29T04:14:51.881Z,1.33
2022-12-29T04:17:20.175Z,1.43
2022-12-29T04:19:48.069Z,1.52
2022-12-29T04:22:16.218Z,1.52
2022-12-29T04:24:48.031Z,1.67
2022-12-29T04:27:15.985Z,1.60
2022-12-29T04:29:44.253Z,1.13
2022-12-29T04:32:11.875Z,1.25
2022-12-29T04:34:40.092Z,1.00
2022-12-29T04:37:07.960Z,1.65
2022-12-29T04:39:35.668Z,1.75
2022-12-29T04:42:05.464Z,1.83
2022-12-29T04:44:33.334Z,1.77
2022-12-29T04:47:02.719Z,1.60
2022-12-29T04:49:30.738Z,1.70
2022-12-29T04:51:58.365Z,1.42
2022-12-29T04:54:26.452Z,1.23
2022-12-29T04:56:54.921Z,1.50
2022-12-29T04:59:24.352Z,1.50
2022-12-29T05:01:52.608Z,1.30
2022-12-29T05:04:20.549Z,1.38
2022-12-29T05:06:48.556Z,1.30
2022-12-29T05:09:16.446Z,1.65
2022-12-29T05:11:46.555Z,1.88
2022-12-29T05:14:14.826Z,1.58
2022-12-29T05:16:44.122Z,1.30
2022-12-29T05:19:12.055Z,1.50
2022-12-29T05:21:39.834Z,1.35
2022-12-29T05:24:07.902Z,1.50
2022-12-29T05:26:35.976Z,1.17
2022-12-29T05:29:04.044Z,1.48
2022-12-29T05:31:31.980Z,0.90
2022-12-29T05:34:01.090Z,0.90
2022-12-29T05:36:34.419Z,0.90
2022-12-29T05:39:05.449Z,0.70
2022-12-29T05:41:33.849Z,0.80
2022-12-29T05:44:01.742Z,0.70
2022-12-29T05:46:29.758Z,0.70
2022-12-29T05:48:58.313Z,0.82
2022-12-29T05:51:27.485Z,0.60
2022-12-29T05:53:55.429Z,0.75
2022-12-29T05:56:23.563Z,0.70
2022-12-29T05:58:52.683Z,0.68
2022-12-29T06:01:20.614Z,0.47
2022-12-29T06:03:48.944Z,0.60
2022-12-29T06:06:17.130Z,0.80
2022-12-29T06:08:46.531Z,0.60
2022-12-29T06:11:14.359Z,1.20
2022-12-29T06:13:41.951Z,0.70
2022-12-29T06:16:09.905Z,0.93
2022-12-29T06:18:37.877Z,0.50
2022-12-29T06:21:07.448Z,0.63
2022-12-29T06:23:35.361Z,0.50
2022-12-29T06:26:04.378Z,0.70
2022-12-29T06:28:32.804Z,0.90
2022-12-29T06:31:00.442Z,0.77
2022-12-29T06:33:28.519Z,0.70
2022-12-29T06:35:56.366Z,0.43
2022-12-29T06:38:24.412Z,0.77
2022-12-29T06:40:52.286Z,0.40
2022-12-29T06:43:21.623Z,1.00
2022-12-29T06:45:49.723Z,0.80
2022-12-29T06:48:17.421Z,1.08
2022-12-29T06:50:45.295Z,1.80
2022-12-29T06:53:13.333Z,1.70
2022-12-29T06:55:41.780Z,3.67
2022-12-29T06:58:10.432Z,2.30
2022-12-29T07:00:40.724Z,1.25
2022-12-29T07:03:08.785Z,1.50
2022-12-29T07:05:36.734Z,1.65
2022-12-29T07:08:04.843Z,1.90
2022-12-29T07:10:32.731Z,1.43
2022-12-29T07:13:00.545Z,1.00
2022-12-29T07:15:28.621Z,1.35
2022-12-29T07:17:57.918Z,1.70
2022-12-29T07:20:27.129Z,1.38
2022-12-29T07:22:55.413Z,1.27
2022-12-29T07:25:23.191Z,1.13
2022-12-29T07:27:50.970Z,1.05
2022-12-29T07:30:19.057Z,1.17
2022-12-29T07:32:46.809Z,1.80
2022-12-29T07:35:15.896Z,0.77
2022-12-29T07:37:45.284Z,0.90
2022-12-29T07:40:14.218Z,0.82
2022-12-29T07:42:41.853Z,1.08
2022-12-29T07:45:11.494Z,1.92
2022-12-29T07:47:39.478Z,1.37
2022-12-29T07:50:08.245Z,0.90
2022-12-29T07:52:37.475Z,1.17
2022-12-29T07:55:05.754Z,1.50
2022-12-29T07:57:33.756Z,1.45
2022-12-29T08:00:01.684Z,1.17
2022-12-29T08:02:32.811Z,1.50
2022-12-29T08:05:00.715Z,1.20
2022-12-29T08:07:28.961Z,1.80
2022-12-29T08:09:59.054Z,1.35
2022-12-29T08:12:27.124Z,1.07
2022-12-29T08:14:55.081Z,1.15
2022-12-29T08:17:23.128Z,0.88
2022-12-29T08:19:51.169Z,0.80
2022-12-29T08:22:19.184Z,1.10
2022-12-29T08:24:47.035Z,0.80
2022-12-29T08:27:20.842Z,0.88
2022-12-29T08:29:49.408Z,0.80
2022-12-29T08:32:18.470Z,0.80
2022-12-29T08:34:46.281Z,0.90
2022-12-29T08:37:14.210Z,1.10
2022-12-29T08:39:42.378Z,0.63
2022-12-29T08:42:11.087Z,1.05
2022-12-29T08:44:40.311Z,1.00
2022-12-29T08:47:08.358Z,0.90
2022-12-29T08:49:36.434Z,0.70
2022-12-29T08:52:04.478Z,0.98
2022-12-29T08:54:32.631Z,0.80
2022-12-29T08:57:00.865Z,1.25
2022-12-29T08:59:28.911Z,1.05
2022-12-29T09:01:57.968Z,1.13
2022-12-29T09:04:25.844Z,1.10
2022-12-29T09:06:53.927Z,0.90
2022-12-29T09:09:22.478Z,1.05
2022-12-29T09:11:50.060Z,0.90
2022-12-29T09:14:17.999Z,0.90
2022-12-29T09:17:05.030Z,1.20
2022-12-29T09:19:34.502Z,1.60
2022-12-29T09:22:02.206Z,1.98
2022-12-29T09:24:30.091Z,2.00
2022-12-29T09:26:58.187Z,1.37
2022-12-29T09:29:26.609Z,1.88
2022-12-29T09:31:54.637Z,1.25
2022-12-29T09:34:22.611Z,1.00
2022-12-29T09:36:51.999Z,1.08
2022-12-29T09:39:19.884Z,1.07
2022-12-29T09:41:53.446Z,1.00
2022-12-29T09:44:27.996Z,1.33
2022-12-29T09:46:57.961Z,1.65
2022-12-29T09:49:30.240Z,1.60
2022-12-29T09:52:04.920Z,1.30
2022-12-29T09:54:47.757Z,1.35
2022-12-29T09:57:24.309Z,1.10
2022-12-29T09:59:54.561Z,1.30
2022-12-29T10:02:35.381Z,1.25
2022-12-29T10:05:10.965Z,1.27
2022-12-29T10:07:47.861Z,0.90
2022-12-29T10:10:30.916Z,1.35
2022-12-29T10:13:08.520Z,1.20
2022-12-29T10:15:47.261Z,1.20
2022-12-29T10:18:27.744Z,1.40
2022-12-29T10:21:04.295Z,0.90
2022-12-29T10:23:38.722Z,1.27
2022-12-29T10:26:13.602Z,1.40
2022-12-29T10:28:45.337Z,1.30
2022-12-29T10:31:21.201Z,1.30
2022-12-29T10:33:53.215Z,1.65
2022-12-29T10:36:25.474Z,1.58
2022-12-29T10:39:13.398Z,1.63
2022-12-29T10:41:47.200Z,1.60
2022-12-29T10:44:18.620Z,1.50
2022-12-29T10:46:53.555Z,2.58
2022-12-29T10:49:22.699Z,2.78
2022-12-29T10:51:53.390Z,1.55
2022-12-29T10:54:29.028Z,1.10
2022-12-29T10:57:03.352Z,1.70
2022-12-29T10:59:33.192Z,1.80
2022-12-29T11:02:18.452Z,1.60
2022-12-29T11:04:55.532Z,1.45
2022-12-29T11:07:27.306Z,1.75
2022-12-29T11:09:56.921Z,1.63
2022-12-29T11:12:28.126Z,0.82
2022-12-29T11:15:15.396Z,1.40
2022-12-29T11:17:48.557Z,0.70
2022-12-29T11:20:36.097Z,0.70
2022-12-29T11:23:05.381Z,0.87
2022-12-29T11:25:40.003Z,1.00
2022-12-29T11:28:19.134Z,1.05
2022-12-29T11:30:47.027Z,1.23
2022-12-29T11:33:15.039Z,1.30
2022-12-29T11:35:45.742Z,1.27
2022-12-29T11:38:23.005Z,2.10
2022-12-29T11:40:52.724Z,1.10
2022-12-29T11:43:27.519Z,0.80
2022-12-29T11:45:57.824Z,0.90
2022-12-29T11:48:28.955Z,0.90
2022-12-29T11:51:00.606Z,0.85
2022-12-29T11:53:30.470Z,0.75
2022-12-29T11:56:02.896Z,0.70
2022-12-29T11:58:33.756Z,0.82
2022-12-29T12:01:05.166Z,0.80
2022-12-29T12:03:34.671Z,0.70
2022-12-29T12:06:04.241Z,0.77
2022-12-29T12:08:36.695Z,0.77
2022-12-29T12:11:13.138Z,0.80
2022-12-29T12:13:49.140Z,0.90
2022-12-29T12:16:19.802Z,1.00
2022-12-29T12:18:51.733Z,0.70
2022-12-29T12:21:27.337Z,0.90
2022-12-29T12:24:19.500Z,1.13
2022-12-29T12:26:58.691Z,1.00
2022-12-29T12:29:34.050Z,1.30
2022-12-29T12:32:06.566Z,1.17
2022-12-29T12:34:39.788Z,1.20
2022-12-29T12:37:34.439Z,1.10
2022-12-29T12:40:24.006Z,0.87
2022-12-29T12:43:02.465Z,0.95
2022-12-29T12:45:45.287Z,0.80
2022-12-29T12:48:32.750Z,0.90
2022-12-29T12:51:12.919Z,0.57
2022-12-29T12:53:58.791Z,0.90
2022-12-29T12:56:49.831Z,0.80
2022-12-29T12:59:34.039Z,1.10
2022-12-29T13:02:10.805Z,0.77
2022-12-29T13:04:58.783Z,0.95
2022-12-29T13:07:37.048Z,0.80
2022-12-29T13:10:18.702Z,0.63
2022-12-29T13:12:55.096Z,0.82
2022-12-29T13:15:38.730Z,0.80
2022-12-29T13:18:20.107Z,1.15
2022-12-29T13:20:52.471Z,1.30
2022-12-29T13:23:29.704Z,1.30
2022-12-29T13:26:07.081Z,0.88
2022-12-29T13:28:39.856Z,0.90
2022-12-29T13:31:19.823Z,1.33
2022-12-29T13:33:56.692Z,0.87
2022-12-29T13:36:30.509Z,3.13
2022-12-29T13:39:07.606Z,1.20
2022-12-29T13:41:39.535Z,1.23
2022-12-29T13:44:10.053Z,0.75
2022-12-29T13:46:42.543Z,0.90
2022-12-29T13:49:15.697Z,1.17
2022-12-29T13:51:49.721Z,1.02
2022-12-29T13:54:30.013Z,0.88
2022-12-29T13:57:07.891Z,1.15
2022-12-29T13:59:46.199Z,1.50
2022-12-29T14:02:28.565Z,1.38
2022-12-29T14:05:06.373Z,1.10
2022-12-29T14:07:40.278Z,1.40
2022-12-29T14:10:08.947Z,1.17
2022-12-29T14:12:40.438Z,1.00
2022-12-29T14:15:20.963Z,0.90
2022-12-29T14:18:05.245Z,1.10
2022-12-29T14:20:33.821Z,1.50
2022-12-29T14:23:17.183Z,1.02
2022-12-29T14:25:58.466Z,1.50
2022-12-29T14:28:28.159Z,1.52
2022-12-29T14:30:57.537Z,1.73
2022-12-29T14:33:32.187Z,1.23
2022-12-29T14:36:24.063Z,1.00
2022-12-29T14:38:52.202Z,1.20
2022-12-29T14:41:29.702Z,0.98
2022-12-29T14:44:01.768Z,1.10
2022-12-29T14:46:49.202Z,1.90
2022-12-29T14:49:22.422Z,1.38
2022-12-29T14:51:53.211Z,1.50
2022-12-29T14:54:44.498Z,1.20
2022-12-29T14:57:23.841Z,1.45
2022-12-29T14:59:57.531Z,1.02
2022-12-29T15:02:33.813Z,1.17
2022-12-29T15:05:05.223Z,1.43
2022-12-29T15:07:34.130Z,2.00
2022-12-29T15:10:07.883Z,1.70
2022-12-29T15:12:40.340Z,1.83
2022-12-29T15:15:23.487Z,1.67
2022-12-29T15:17:51.561Z,1.47
2022-12-29T15:20:26.789Z,1.25
2022-12-29T15:22:57.892Z,1.40
2022-12-29T15:25:27.644Z,1.38
2022-12-29T15:28:02.540Z,1.70
2022-12-29T15:30:31.437Z,2.37
2022-12-29T15:32:59.691Z,2.25
2022-12-29T15:35:33.378Z,2.35
2022-12-29T15:38:04.262Z,1.40
2022-12-29T15:40:34.435Z,2.22
2022-12-29T15:43:25.996Z,1.97
2022-12-29T15:45:55.977Z,2.40
2022-12-29T15:48:26.606Z,2.42
2022-12-29T15:50:56.360Z,3.28
2022-12-29T15:53:29.368Z,2.65
2022-12-29T15:56:03.595Z,1.90
2022-12-29T15:58:41.808Z,2.70
2022-12-29T16:01:21.083Z,3.00
2022-12-29T16:03:49.800Z,2.40
2022-12-29T16:06:34.154Z,2.80
2022-12-29T16:09:04.863Z,4.67
2022-12-29T16:11:37.565Z,5.70
2022-12-29T16:14:10.742Z,3.60
2022-12-29T16:16:41.205Z,5.88
2022-12-29T16:19:16.178Z,3.38
2022-12-29T16:21:46.491Z,3.40
2022-12-29T16:24:17.079Z,2.67
2022-12-29T16:26:50.851Z,1.90
2022-12-29T16:29:21.736Z,2.65
2022-12-29T16:31:54.219Z,2.10
2022-12-29T16:34:27.759Z,1.80
2022-12-29T16:36:59.471Z,1.70
2022-12-29T16:39:34.219Z,2.90
2022-12-29T16:42:02.553Z,2.45
2022-12-29T16:44:32.301Z,2.13
2022-12-29T16:47:05.445Z,2.13
2022-12-29T16:49:35.663Z,2.72
2022-12-29T16:52:14.651Z,3.00
2022-12-29T16:54:44.355Z,2.30
2022-12-29T16:57:13.280Z,2.10
2022-12-29T16:59:43.891Z,2.00
2022-12-29T17:02:17.467Z,1.85
2022-12-29T17:04:49.557Z,1.83
2022-12-29T17:07:21.223Z,2.40
2022-12-29T17:09:49.158Z,2.35
2022-12-29T17:12:21.029Z,1.70
2022-12-29T17:14:50.481Z,2.00
2022-12-29T17:17:21.864Z,1.83
2022-12-29T17:19:54.327Z,1.50
2022-12-29T17:22:26.732Z,1.70
2022-12-29T17:24:55.041Z,2.17
2022-12-29T17:27:27.577Z,2.60
2022-12-29T17:29:58.635Z,2.70
2022-12-29T17:32:26.854Z,2.28
2022-12-29T17:34:54.878Z,2.15
2022-12-29T17:37:31.330Z,1.40
2022-12-29T17:39:59.237Z,1.20
2022-12-29T17:42:26.967Z,1.40
2022-12-29T17:44:54.696Z,1.88
2022-12-29T17:47:22.785Z,3.92
2022-12-29T17:49:50.770Z,2.20
2022-12-29T17:52:22.320Z,1.90
2022-12-29T17:54:54.083Z,7.38
2022-12-29T17:57:22.641Z,7.53
2022-12-29T17:59:50.341Z,7.13
2022-12-29T18:02:27.381Z,4.57
2022-12-29T18:04:56.901Z,2.38
2022-12-29T18:07:31.109Z,2.00
2022-12-29T18:10:05.095Z,2.20
2022-12-29T18:12:40.179Z,3.08
2022-12-29T18:15:17.965Z,2.63
2022-12-29T18:17:45.778Z,3.80
2022-12-29T18:20:13.526Z,1.95
2022-12-29T18:22:41.170Z,5.28
2022-12-29T18:25:24.169Z,5.85
2022-12-29T18:27:52.069Z,6.90
2022-12-29T18:30:20.106Z,3.83
2022-12-29T18:32:48.041Z,4.03
2022-12-29T18:35:27.158Z,3.53
2022-12-29T18:37:55.243Z,2.90
2022-12-29T18:40:24.484Z,2.13
2022-12-29T18:42:52.187Z,1.73
2022-12-29T18:45:22.441Z,1.73
2022-12-29T18:47:50.555Z,1.10
2022-12-29T18:50:18.742Z,1.00
2022-12-29T18:52:47.237Z,2.80
2022-12-29T18:55:16.968Z,2.20
2022-12-29T18:57:46.075Z,3.55
2022-12-29T19:00:16.845Z,3.33
2022-12-29T19:02:45.029Z,3.67
2022-12-29T19:05:20.783Z,2.27
2022-12-29T19:07:48.675Z,2.00
2022-12-29T19:10:16.693Z,2.38
2022-12-29T19:12:46.094Z,2.70
2022-12-29T19:15:22.231Z,2.60
2022-12-29T19:18:16.082Z,4.63
2022-12-29T19:20:39.971Z,5.50
2022-12-29T19:23:10.546Z,6.50
2022-12-29T19:25:38.657Z,6.40
2022-12-29T19:28:12.768Z,7.30
2022-12-29T19:30:40.640Z,6.47
2022-12-29T19:33:10.161Z,6.18
2022-12-29T19:35:39.002Z,5.70
2022-12-29T19:38:07.204Z,6.18
2022-12-29T19:40:35.310Z,6.88
2022-12-29T19:43:03.593Z,6.33
2022-12-29T19:45:32.773Z,7.25
2022-12-29T19:48:14.796Z,6.50
2022-12-29T19:50:43.375Z,5.63
2022-12-29T19:53:11.190Z,6.20
2022-12-29T19:55:42.743Z,8.23
2022-12-29T19:58:10.575Z,5.90
2022-12-29T20:00:41.049Z,5.75
2022-12-29T20:03:09.249Z,4.78
2022-12-29T20:05:37.629Z,4.47
2022-12-29T20:08:05.761Z,2.73
2022-12-29T20:10:33.684Z,2.15
2022-12-29T20:13:02.823Z,1.98
2022-12-29T20:15:30.448Z,2.17
2022-12-29T20:18:13.186Z,2.20
2022-12-29T20:20:42.212Z,1.90
2022-12-29T20:23:10.153Z,2.60
2022-12-29T20:25:46.416Z,1.60
2022-12-29T20:28:17.091Z,1.80
2022-12-29T20:30:45.623Z,1.30
2022-12-29T20:33:14.655Z,1.50
2022-12-29T20:35:42.251Z,3.10
2022-12-29T20:38:10.237Z,2.30
2022-12-29T20:40:45.985Z,1.83
2022-12-29T20:43:16.000Z,1.35
2022-12-29T20:45:44.111Z,1.17
2022-12-29T20:48:12.411Z,1.10
2022-12-29T20:50:41.701Z,0.68
2022-12-29T20:53:09.837Z,1.10
2022-12-29T20:55:40.920Z,0.90
2022-12-29T20:58:25.343Z,0.90
2022-12-29T21:00:53.556Z,0.60
2022-12-29T21:03:21.325Z,0.77
2022-12-29T21:05:50.578Z,0.82
2022-12-29T21:08:18.733Z,1.10
2022-12-29T21:10:48.729Z,1.23
2022-12-29T21:13:16.921Z,2.08
2022-12-29T21:15:44.837Z,1.73
2022-12-29T21:18:13.751Z,2.17
2022-12-29T21:20:42.107Z,1.60
2022-12-29T21:23:11.944Z,1.43
2022-12-29T21:25:45.168Z,1.50
2022-12-29T21:28:13.517Z,1.27
2022-12-29T21:30:41.958Z,1.13
2022-12-29T21:33:10.115Z,1.00
2022-12-29T21:35:38.747Z,0.60
2022-12-29T21:38:09.977Z,0.93
2022-12-29T21:40:41.375Z,0.45
2022-12-29T21:43:12.669Z,0.50
2022-12-29T21:45:39.543Z,0.50
2022-12-29T21:48:24.137Z,0.40
2022-12-29T21:51:11.940Z,0.60
2022-12-29T21:53:41.400Z,1.20
2022-12-29T21:56:12.945Z,0.75
2022-12-29T21:59:00.326Z,0.60
2022-12-29T22:01:47.735Z,1.23
2022-12-29T22:04:34.705Z,1.00
2022-12-29T22:07:19.935Z,1.25
2022-12-29T22:10:05.539Z,0.98
2022-12-29T22:12:53.055Z,0.82
2022-12-29T22:15:21.751Z,1.00
2022-12-29T22:17:51.889Z,0.85
2022-12-29T22:20:21.023Z,0.55
2022-12-29T22:22:49.106Z,0.57
2022-12-29T22:25:17.034Z,0.50
2022-12-29T22:27:46.569Z,0.67
2022-12-29T22:30:15.280Z,0.52
2022-12-29T22:32:43.507Z,0.43
2022-12-29T22:35:12.309Z,0.47
2022-12-29T22:37:43.414Z,0.30
2022-12-29T22:40:13.214Z,0.23
2022-12-29T22:42:41.029Z,0.10
2022-12-29T22:45:11.353Z,0.10
2022-12-29T22:47:39.921Z,0.10
2022-12-29T22:50:08.373Z,0.10
2022-12-29T22:52:36.574Z,0.10
2022-12-29T22:55:07.264Z,0.15
2022-12-29T22:57:36.477Z,0.10
2022-12-29T23:00:08.101Z,0.10
2022-12-29T23:02:37.679Z,0.15
2022-12-29T23:05:06.437Z,0.10
2022-12-29T23:07:35.732Z,0.15
2022-12-29T23:10:04.211Z,0.10
2022-12-29T23:12:32.566Z,0.10
2022-12-29T23:15:00.883Z,0.20
2022-12-29T23:17:29.094Z,0.10
2022-12-29T23:19:58.341Z,0.10
2022-12-29T23:22:26.379Z,0.00
2022-12-29T23:24:54.333Z,0.10
2022-12-29T23:27:22.403Z,0.08
2022-12-29T23:29:50.458Z,0.10
2022-12-29T23:32:18.374Z,0.10
2022-12-29T23:34:46.244Z,0.00
2022-12-29T23:37:15.672Z,0.10
2022-12-29T23:39:43.555Z,0.10
2022-12-29T23:42:12.351Z,0.40
2022-12-29T23:44:40.533Z,0.10
2022-12-29T23:47:08.511Z,0.10
2022-12-29T23:49:36.598Z,0.10
2022-12-29T23:52:04.811Z,0.10
2022-12-29T23:54:34.133Z,0.00
2022-12-29T23:57:02.209Z,0.10
2022-12-29T23:59:30.678Z,0.00
